createdAt,value
2023-08-25T00:00:27.295Z,4.57
2023-08-25T00:03:14.446Z,3.80
2023-08-25T00:06:01.565Z,4.33
2023-08-25T00:08:49.441Z,4.27
2023-08-25T00:11:36.385Z,4.17
2023-08-25T00:14:23.308Z,4.00
2023-08-25T00:17:10.270Z,3.93
2023-08-25T00:19:57.167Z,5.10
2023-08-25T00:22:44.196Z,4.77
2023-08-25T00:25:31.286Z,4.37
2023-08-25T00:28:18.351Z,5.87
2023-08-25T00:31:05.382Z,4.37
2023-08-25T00:33:52.508Z,4.00
2023-08-25T00:36:39.416Z,6.07
2023-08-25T00:39:26.495Z,6.60
2023-08-25T00:42:15.615Z,3.90
2023-08-25T00:45:04.974Z,3.93
2023-08-25T00:47:52.435Z,4.00
2023-08-25T00:50:39.755Z,3.97
2023-08-25T00:53:27.418Z,3.80
2023-08-25T00:59:02.122Z,3.97
2023-08-25T01:01:49.253Z,3.50
2023-08-25T01:04:36.323Z,4.77
2023-08-25T01:07:23.811Z,3.83
2023-08-25T01:10:10.926Z,3.53
2023-08-25T01:13:30.933Z,4.73
2023-08-25T01:16:17.978Z,3.97
2023-08-25T01:19:06.030Z,4.27
2023-08-25T01:21:56.683Z,4.77
2023-08-25T01:24:34.464Z,4.97
2023-08-25T01:27:01.888Z,3.53
2023-08-25T01:29:29.045Z,3.63
2023-08-25T01:31:57.806Z,3.67
2023-08-25T01:34:25.684Z,4.50
2023-08-25T01:37:24.678Z,3.40
2023-08-25T01:39:56.067Z,3.53
2023-08-25T01:42:25.466Z,3.83
2023-08-25T01:44:55.039Z,4.37
2023-08-25T01:47:26.405Z,3.60
2023-08-25T01:49:54.316Z,3.40
2023-08-25T01:52:22.334Z,3.60
2023-08-25T01:54:53.534Z,3.80
2023-08-25T01:57:21.004Z,3.77
2023-08-25T01:59:48.024Z,4.07
2023-08-25T02:02:15.108Z,3.67
2023-08-25T02:04:42.141Z,3.23
2023-08-25T02:07:09.174Z,3.47
2023-08-25T02:09:36.589Z,3.00
2023-08-25T02:12:03.679Z,3.27
2023-08-25T02:14:30.596Z,4.23
2023-08-25T02:16:57.527Z,3.20
2023-08-25T02:19:24.692Z,3.10
2023-08-25T02:21:54.086Z,2.90
2023-08-25T02:24:21.143Z,2.90
2023-08-25T02:26:48.318Z,2.87
2023-08-25T02:29:15.638Z,3.10
2023-08-25T02:31:42.930Z,2.97
2023-08-25T02:34:10.086Z,3.27
2023-08-25T02:36:37.214Z,3.63
2023-08-25T02:39:04.520Z,3.07
2023-08-25T02:41:31.540Z,3.07
2023-08-25T02:43:58.545Z,3.07
2023-08-25T02:46:25.498Z,2.77
2023-08-25T02:48:53.852Z,2.63
2023-08-25T02:51:20.902Z,3.20
2023-08-25T02:53:47.788Z,2.70
2023-08-25T02:56:14.805Z,2.77
2023-08-25T02:58:41.773Z,3.90
2023-08-25T03:01:13.531Z,5.27
2023-08-25T03:03:41.164Z,2.80
2023-08-25T03:06:08.348Z,2.90
2023-08-25T03:08:35.983Z,3.77
2023-08-25T03:11:04.311Z,3.00
2023-08-25T03:16:03.109Z,3.77
2023-08-25T03:18:31.336Z,2.63
2023-08-25T03:21:18.397Z,3.43
2023-08-25T03:24:05.348Z,2.60
2023-08-25T03:26:53.189Z,2.60
2023-08-25T03:29:40.219Z,2.57
2023-08-25T03:32:27.108Z,2.57
2023-08-25T03:35:14.163Z,3.60
2023-08-25T03:38:01.890Z,2.80
2023-08-25T03:40:49.117Z,2.77
2023-08-25T03:43:36.068Z,3.13
2023-08-25T03:46:22.963Z,2.47
2023-08-25T03:49:10.067Z,2.70
2023-08-25T03:51:57.115Z,3.07
2023-08-25T03:54:44.268Z,2.70
2023-08-25T03:57:31.632Z,3.63
2023-08-25T04:00:18.912Z,3.00
2023-08-25T04:03:05.924Z,2.27
2023-08-25T04:05:54.209Z,2.63
2023-08-25T04:08:41.294Z,2.43
2023-08-25T04:11:28.262Z,3.00
2023-08-25T04:14:16.325Z,2.60
2023-08-25T04:17:03.698Z,2.23
2023-08-25T04:19:51.992Z,3.03
2023-08-25T04:22:38.975Z,2.33
2023-08-25T04:25:26.222Z,3.40
2023-08-25T04:28:13.754Z,2.10
2023-08-25T04:31:00.875Z,2.43
2023-08-25T04:33:54.586Z,3.07
2023-08-25T04:36:41.701Z,2.60
2023-08-25T04:39:28.816Z,2.50
2023-08-25T04:42:15.766Z,2.37
2023-08-25T04:45:02.805Z,2.47
2023-08-25T04:47:50.406Z,2.30
2023-08-25T04:50:37.349Z,2.60
2023-08-25T04:53:24.482Z,2.53
2023-08-25T04:56:11.385Z,2.60
2023-08-25T04:58:58.388Z,2.50
2023-08-25T05:01:25.542Z,2.70
2023-08-25T05:03:54.777Z,2.10
2023-08-25T05:06:22.304Z,4.43
2023-08-25T05:08:49.253Z,2.70
2023-08-25T05:11:17.341Z,2.27
2023-08-25T05:13:44.526Z,2.40
2023-08-25T05:16:18.995Z,2.10
2023-08-25T05:19:06.673Z,2.17
2023-08-25T05:21:35.074Z,3.00
2023-08-25T05:24:26.389Z,2.70
2023-08-25T05:26:55.920Z,1.90
2023-08-25T05:29:25.480Z,2.87
2023-08-25T05:31:54.207Z,2.47
2023-08-25T05:34:50.376Z,2.80
2023-08-25T05:37:17.493Z,2.20
2023-08-25T05:39:44.655Z,2.00
2023-08-25T05:42:11.654Z,2.20
2023-08-25T05:44:38.676Z,2.63
2023-08-25T05:47:07.330Z,2.13
2023-08-25T05:49:35.356Z,2.00
2023-08-25T05:52:04.411Z,1.90
2023-08-25T05:54:31.425Z,2.13
2023-08-25T05:56:59.966Z,2.87
2023-08-25T05:59:26.994Z,3.17
2023-08-25T06:01:54.918Z,2.90
2023-08-25T06:04:22.162Z,1.90
2023-08-25T06:06:49.160Z,1.90
2023-08-25T06:09:18.830Z,2.10
2023-08-25T06:11:46.181Z,1.87
2023-08-25T06:14:13.326Z,2.20
2023-08-25T06:16:40.878Z,1.90
2023-08-25T06:19:08.621Z,3.07
2023-08-25T06:21:36.545Z,2.37
2023-08-25T06:24:04.440Z,3.10
2023-08-25T06:26:31.582Z,2.17
2023-08-25T06:28:58.567Z,1.90
2023-08-25T06:31:25.767Z,1.83
2023-08-25T06:33:53.028Z,2.23
2023-08-25T06:36:20.060Z,1.80
2023-08-25T06:38:56.309Z,2.00
2023-08-25T06:41:24.682Z,2.03
2023-08-25T06:43:52.441Z,1.90
2023-08-25T06:46:19.496Z,1.80
2023-08-25T06:48:46.807Z,3.53
2023-08-25T06:51:14.004Z,3.37
2023-08-25T06:53:41.364Z,2.43
2023-08-25T06:56:08.325Z,1.97
2023-08-25T06:58:38.120Z,2.23
2023-08-25T07:01:05.760Z,2.60
2023-08-25T07:03:35.035Z,2.10
2023-08-25T07:06:02.650Z,2.27
2023-08-25T07:08:29.767Z,2.83
2023-08-25T07:10:57.211Z,1.67
2023-08-25T07:13:24.393Z,3.80
2023-08-25T07:15:52.020Z,2.37
2023-08-25T07:18:19.173Z,1.13
2023-08-25T07:20:46.258Z,1.50
2023-08-25T07:23:13.266Z,2.10
2023-08-25T07:25:44.779Z,2.13
2023-08-25T07:28:12.651Z,1.40
2023-08-25T07:30:40.108Z,3.07
2023-08-25T07:33:08.543Z,1.20
2023-08-25T07:35:36.664Z,1.20
2023-08-25T07:38:04.854Z,0.93
2023-08-25T07:40:33.247Z,1.17
2023-08-25T07:43:04.952Z,1.37
2023-08-25T07:45:32.483Z,1.93
2023-08-25T07:48:01.128Z,1.00
2023-08-25T07:50:29.704Z,1.00
2023-08-25T07:52:57.285Z,0.80
2023-08-25T07:55:24.470Z,1.00
2023-08-25T07:57:52.594Z,0.57
2023-08-25T08:00:20.544Z,0.80
2023-08-25T08:02:48.507Z,1.07
2023-08-25T08:05:20.065Z,0.77
2023-08-25T08:07:51.260Z,0.70
2023-08-25T08:10:19.639Z,0.70
2023-08-25T08:12:47.493Z,1.07
2023-08-25T08:15:14.784Z,2.20
2023-08-25T08:17:42.030Z,0.70
2023-08-25T08:20:13.863Z,0.87
2023-08-25T08:22:42.611Z,0.70
2023-08-25T08:25:11.882Z,0.63
2023-08-25T08:27:40.950Z,1.13
2023-08-25T08:30:11.586Z,1.27
2023-08-25T08:32:40.035Z,1.47
2023-08-25T08:35:11.526Z,1.13
2023-08-25T08:37:40.221Z,1.13
2023-08-25T08:40:10.252Z,0.50
2023-08-25T08:42:39.144Z,0.80
2023-08-25T08:45:11.990Z,1.03
2023-08-25T08:47:40.233Z,0.70
2023-08-25T08:50:08.455Z,0.93
2023-08-25T08:52:36.639Z,1.23
2023-08-25T08:55:08.596Z,0.50
2023-08-25T08:57:36.047Z,0.77
2023-08-25T09:00:10.700Z,1.07
2023-08-25T09:02:38.334Z,1.13
2023-08-25T09:05:07.144Z,1.20
2023-08-25T09:07:35.283Z,0.70
2023-08-25T09:10:03.485Z,0.70
2023-08-25T09:12:30.836Z,0.87
2023-08-25T09:14:58.137Z,0.40
2023-08-25T09:17:25.244Z,0.83
2023-08-25T09:19:52.638Z,0.47
2023-08-25T09:22:20.645Z,1.70
2023-08-25T09:24:48.035Z,0.40
2023-08-25T09:27:28.549Z,0.40
2023-08-25T09:30:07.952Z,0.37
2023-08-25T09:32:35.507Z,0.57
2023-08-25T09:35:16.154Z,1.13
2023-08-25T09:37:44.183Z,2.00
2023-08-25T09:40:15.800Z,1.03
2023-08-25T09:42:44.011Z,0.50
2023-08-25T09:45:12.751Z,0.97
2023-08-25T09:47:42.982Z,0.50
2023-08-25T09:50:20.969Z,0.70
2023-08-25T09:52:49.867Z,1.90
2023-08-25T09:55:18.989Z,2.67
2023-08-25T09:57:49.893Z,1.70
2023-08-25T10:00:17.607Z,0.50
2023-08-25T10:02:46.508Z,0.70
2023-08-25T10:05:15.375Z,1.30
2023-08-25T10:07:44.029Z,1.53
2023-08-25T10:10:11.368Z,1.13
2023-08-25T10:12:40.014Z,0.60
2023-08-25T10:15:10.558Z,0.70
2023-08-25T10:17:38.209Z,0.93
2023-08-25T10:20:11.570Z,1.73
2023-08-25T10:22:45.780Z,1.13
2023-08-25T10:25:14.386Z,0.83
2023-08-25T10:27:42.328Z,0.80
2023-08-25T10:30:10.159Z,0.93
2023-08-25T10:33:10.204Z,0.60
2023-08-25T10:35:48.259Z,0.57
2023-08-25T10:38:21.480Z,0.60
2023-08-25T10:40:54.058Z,1.30
2023-08-25T10:43:25.667Z,3.60
2023-08-25T10:45:53.556Z,0.97
2023-08-25T10:48:35.642Z,0.40
2023-08-25T10:51:10.156Z,0.53
2023-08-25T10:53:46.040Z,1.50
2023-08-25T10:56:23.862Z,0.63
2023-08-25T10:58:56.595Z,0.53
2023-08-25T11:01:36.198Z,0.50
2023-08-25T11:04:07.982Z,0.60
2023-08-25T11:06:44.988Z,0.63
2023-08-25T11:09:47.269Z,1.30
2023-08-25T11:12:14.356Z,1.30
2023-08-25T11:14:43.737Z,1.13
2023-08-25T11:17:11.228Z,1.27
2023-08-25T11:19:40.935Z,0.50
2023-08-25T11:22:13.175Z,1.80
2023-08-25T11:24:40.986Z,1.50
2023-08-25T11:27:12.522Z,0.50
2023-08-25T11:29:46.609Z,0.63
2023-08-25T11:32:14.941Z,0.43
2023-08-25T11:34:49.597Z,2.07
2023-08-25T11:37:16.980Z,0.40
2023-08-25T11:39:44.646Z,2.53
2023-08-25T11:42:12.003Z,0.50
2023-08-25T11:44:42.842Z,0.60
2023-08-25T11:47:11.350Z,1.13
2023-08-25T11:49:40.522Z,0.50
2023-08-25T11:52:08.637Z,0.50
2023-08-25T11:54:46.266Z,1.90
2023-08-25T11:57:13.850Z,0.60
2023-08-25T11:59:45.209Z,1.13
2023-08-25T12:02:19.637Z,0.40
2023-08-25T12:04:59.234Z,0.30
2023-08-25T12:07:28.825Z,0.43
2023-08-25T12:09:57.891Z,1.90
2023-08-25T12:12:25.242Z,0.90
2023-08-25T12:14:53.237Z,0.30
2023-08-25T12:17:29.552Z,0.53
2023-08-25T12:19:57.881Z,0.30
2023-08-25T12:22:25.216Z,0.63
2023-08-25T12:24:52.778Z,0.77
2023-08-25T12:27:20.017Z,1.03
2023-08-25T12:29:47.023Z,0.40
2023-08-25T12:32:14.216Z,0.70
2023-08-25T12:34:43.622Z,0.50
2023-08-25T12:37:12.747Z,0.40
2023-08-25T12:39:39.718Z,0.40
2023-08-25T12:42:07.021Z,2.80
2023-08-25T12:44:34.034Z,1.60
2023-08-25T12:47:01.038Z,1.53
2023-08-25T12:49:27.942Z,0.60
2023-08-25T12:51:55.197Z,1.10
2023-08-25T12:54:22.533Z,0.80
2023-08-25T12:56:51.383Z,0.80
2023-08-25T12:59:18.309Z,1.10
2023-08-25T13:01:45.393Z,0.70
2023-08-25T13:04:12.503Z,2.73
2023-08-25T13:06:39.428Z,1.60
2023-08-25T13:09:06.357Z,0.80
2023-08-25T13:11:33.449Z,1.40
2023-08-25T13:14:00.505Z,0.73
2023-08-25T13:16:27.745Z,0.90
2023-08-25T13:18:54.643Z,0.60
2023-08-25T13:21:21.545Z,2.83
2023-08-25T13:24:02.044Z,1.23
2023-08-25T13:26:35.399Z,0.77
2023-08-25T13:29:04.130Z,1.83
2023-08-25T13:31:31.821Z,0.90
2023-08-25T13:33:59.046Z,2.03
2023-08-25T13:36:26.043Z,1.13
2023-08-25T13:38:53.053Z,1.00
2023-08-25T13:41:19.972Z,0.83
2023-08-25T13:43:47.113Z,0.80
2023-08-25T13:46:14.297Z,0.80
2023-08-25T13:48:41.370Z,0.67
2023-08-25T13:51:08.291Z,0.90
2023-08-25T13:53:37.190Z,1.13
2023-08-25T13:56:04.890Z,0.80
2023-08-25T13:58:32.383Z,0.90
2023-08-25T14:00:59.499Z,0.80
2023-08-25T14:03:27.155Z,0.90
2023-08-25T14:05:54.259Z,0.80
2023-08-25T14:08:21.242Z,1.50
2023-08-25T14:10:48.214Z,0.80
2023-08-25T14:13:15.495Z,0.90
2023-08-25T14:15:42.585Z,1.40
2023-08-25T14:18:09.985Z,0.83
2023-08-25T14:20:37.014Z,1.10
2023-08-25T14:23:24.105Z,1.00
2023-08-25T14:26:11.274Z,1.17
2023-08-25T14:28:58.293Z,1.10
2023-08-25T14:31:45.384Z,0.90
2023-08-25T14:34:32.219Z,1.00
2023-08-25T14:37:19.199Z,1.20
2023-08-25T14:40:06.197Z,2.13
2023-08-25T14:42:53.327Z,1.27
2023-08-25T14:45:40.287Z,2.53
2023-08-25T14:48:27.338Z,1.40
2023-08-25T14:51:22.815Z,1.33
2023-08-25T14:54:09.762Z,2.00
2023-08-25T14:56:57.919Z,1.33
2023-08-25T14:59:44.901Z,1.40
2023-08-25T15:02:31.890Z,1.40
2023-08-25T15:05:19.017Z,1.20
2023-08-25T15:08:05.950Z,1.20
2023-08-25T15:10:53.288Z,2.00
2023-08-25T15:13:40.595Z,1.37
2023-08-25T15:16:27.647Z,2.37
2023-08-25T15:19:14.678Z,1.93
2023-08-25T15:22:01.774Z,1.63
2023-08-25T15:24:48.832Z,2.40
2023-08-25T15:27:35.858Z,2.20
2023-08-25T15:30:22.770Z,1.37
2023-08-25T15:33:09.794Z,1.53
2023-08-25T15:36:01.860Z,1.53
2023-08-25T15:38:51.812Z,2.33
2023-08-25T15:41:38.674Z,2.10
2023-08-25T15:44:25.737Z,1.40
2023-08-25T15:47:12.706Z,1.03
2023-08-25T15:49:59.757Z,1.23
2023-08-25T15:52:46.673Z,1.50
2023-08-25T15:55:33.589Z,1.13
2023-08-25T15:58:20.453Z,1.00
2023-08-25T16:01:10.857Z,1.10
2023-08-25T16:03:57.789Z,0.83
2023-08-25T16:06:44.843Z,0.90
2023-08-25T16:09:31.693Z,1.23
2023-08-25T16:12:18.718Z,1.30
2023-08-25T16:15:05.601Z,1.20
2023-08-25T16:17:52.603Z,2.23
2023-08-25T16:20:39.650Z,1.10
2023-08-25T16:23:26.643Z,1.20
2023-08-25T16:26:13.639Z,1.23
2023-08-25T16:29:00.728Z,1.37
2023-08-25T16:31:47.723Z,1.00
2023-08-25T16:34:34.735Z,1.50
2023-08-25T16:37:21.663Z,1.83
2023-08-25T16:40:08.734Z,1.37
2023-08-25T16:42:55.919Z,1.20
2023-08-25T16:45:43.010Z,3.30
2023-08-25T16:48:30.063Z,3.70
2023-08-25T16:51:17.489Z,2.13
2023-08-25T16:54:07.328Z,1.30
2023-08-25T16:57:12.923Z,1.60
2023-08-25T16:59:59.932Z,2.97
2023-08-25T17:02:47.030Z,1.60
2023-08-25T17:05:34.200Z,1.43
2023-08-25T17:08:21.368Z,1.53
2023-08-25T17:11:08.310Z,1.58
2023-08-25T17:13:55.538Z,1.60
2023-08-25T17:16:42.582Z,1.40
2023-08-25T17:19:29.456Z,1.40
2023-08-25T17:22:16.462Z,2.80
2023-08-25T17:25:03.397Z,1.33
2023-08-25T17:27:50.406Z,2.97
2023-08-25T17:30:37.611Z,1.70
2023-08-25T17:33:24.966Z,1.80
2023-08-25T17:36:11.888Z,1.97
2023-08-25T17:38:58.784Z,1.60
2023-08-25T17:41:45.717Z,1.53
2023-08-25T17:44:33.221Z,1.57
2023-08-25T17:47:20.160Z,1.67
2023-08-25T17:50:07.165Z,1.13
2023-08-25T17:52:54.299Z,1.40
2023-08-25T17:55:41.362Z,1.50
2023-08-25T17:58:28.393Z,1.40
2023-08-25T18:01:19.496Z,2.50
2023-08-25T18:04:06.612Z,1.60
2023-08-25T18:06:53.581Z,2.27
2023-08-25T18:09:40.505Z,1.70
2023-08-25T18:12:27.810Z,1.57
2023-08-25T18:15:14.807Z,1.50
2023-08-25T18:18:01.712Z,1.70
2023-08-25T18:20:48.723Z,1.87
2023-08-25T18:23:35.770Z,2.60
2023-08-25T18:26:23.090Z,4.00
2023-08-25T18:29:09.938Z,2.60
2023-08-25T18:31:58.302Z,1.90
2023-08-25T18:34:46.202Z,2.60
2023-08-25T18:37:33.050Z,2.57
2023-08-25T18:40:20.247Z,1.73
2023-08-25T18:43:07.198Z,1.70
2023-08-25T18:45:55.115Z,1.83
2023-08-25T18:48:42.123Z,2.10
2023-08-25T18:51:29.231Z,1.70
2023-08-25T18:54:16.062Z,1.60
2023-08-25T18:57:03.243Z,1.70
2023-08-25T18:59:50.198Z,2.50
2023-08-25T19:02:37.213Z,2.83
2023-08-25T19:05:24.299Z,2.20
2023-08-25T19:08:11.256Z,1.93
2023-08-25T19:10:58.126Z,2.73
2023-08-25T19:13:45.430Z,1.77
2023-08-25T19:16:32.540Z,1.87
2023-08-25T19:19:19.526Z,3.00
2023-08-25T19:22:06.467Z,1.50
2023-08-25T19:24:54.126Z,2.30
2023-08-25T19:27:41.097Z,2.37
2023-08-25T19:30:28.567Z,6.70
2023-08-25T19:33:15.580Z,3.13
2023-08-25T19:36:02.732Z,1.67
2023-08-25T19:38:49.618Z,1.70
2023-08-25T19:41:36.542Z,3.33
2023-08-25T19:44:23.550Z,1.77
2023-08-25T19:47:10.559Z,1.67
2023-08-25T19:49:57.500Z,2.43
2023-08-25T19:52:44.832Z,1.70
2023-08-25T19:55:31.811Z,3.23
2023-08-25T19:58:18.795Z,1.63
2023-08-25T20:01:05.769Z,2.00
2023-08-25T20:03:52.999Z,4.00
2023-08-25T20:06:40.718Z,1.80
2023-08-25T20:09:28.169Z,1.47
2023-08-25T20:12:15.634Z,2.03
2023-08-25T20:15:02.788Z,1.40
2023-08-25T20:17:49.880Z,2.17
2023-08-25T20:20:37.046Z,1.97
2023-08-25T20:23:24.129Z,1.87
2023-08-25T20:26:14.594Z,3.23
2023-08-25T20:29:01.562Z,2.43
2023-08-25T20:31:48.530Z,2.30
2023-08-25T20:34:35.604Z,1.73
2023-08-25T20:37:22.466Z,2.13
2023-08-25T20:40:09.458Z,1.83
2023-08-25T20:42:58.749Z,1.90
2023-08-25T20:45:46.192Z,1.70
2023-08-25T20:48:33.349Z,1.70
2023-08-25T20:51:20.403Z,2.53
2023-08-25T20:54:07.769Z,4.47
2023-08-25T20:56:57.166Z,2.20
2023-08-25T20:59:44.650Z,1.83
2023-08-25T21:02:31.571Z,1.93
2023-08-25T21:05:19.087Z,2.10
2023-08-25T21:08:06.001Z,2.97
2023-08-25T21:10:52.975Z,2.13
2023-08-25T21:13:40.158Z,2.63
2023-08-25T21:16:27.123Z,2.43
2023-08-25T21:19:14.035Z,2.17
2023-08-25T21:22:01.717Z,3.07
2023-08-25T21:24:49.115Z,2.10
2023-08-25T21:27:36.501Z,2.73
2023-08-25T21:30:23.943Z,2.20
2023-08-25T21:33:11.015Z,3.00
2023-08-25T21:35:58.156Z,2.07
2023-08-25T21:38:45.117Z,2.33
2023-08-25T21:41:31.964Z,2.23
2023-08-25T21:44:19.112Z,2.60
2023-08-25T21:47:06.036Z,2.57
2023-08-25T21:49:52.975Z,3.33
2023-08-25T21:52:39.841Z,2.67
2023-08-25T21:55:27.378Z,2.77
2023-08-25T21:58:14.537Z,2.47
2023-08-25T22:01:01.923Z,3.03
2023-08-25T22:03:48.898Z,2.50
2023-08-25T22:06:35.863Z,2.43
2023-08-25T22:09:22.767Z,3.97
2023-08-25T22:12:10.069Z,2.47
2023-08-25T22:14:57.076Z,2.30
2023-08-25T22:17:44.207Z,2.63
2023-08-25T22:20:31.697Z,4.73
2023-08-25T22:23:19.073Z,2.57
2023-08-25T22:26:06.394Z,3.43
2023-08-25T22:28:53.786Z,2.43
2023-08-25T22:31:41.032Z,2.53
2023-08-25T22:34:27.990Z,3.00
2023-08-25T22:37:14.978Z,2.40
2023-08-25T22:40:01.887Z,2.37
2023-08-25T22:42:48.858Z,2.83
2023-08-25T22:45:35.961Z,4.00
2023-08-25T22:48:22.854Z,5.73
2023-08-25T22:51:09.924Z,3.17
2023-08-25T22:53:56.854Z,3.83
2023-08-25T22:56:44.482Z,2.83
2023-08-25T22:59:31.433Z,6.23
2023-08-25T23:02:18.374Z,2.43
2023-08-25T23:05:05.236Z,2.57
2023-08-25T23:07:52.347Z,2.73
2023-08-25T23:10:39.216Z,3.50
2023-08-25T23:13:30.945Z,3.40
2023-08-25T23:16:18.480Z,3.00
2023-08-25T23:19:05.501Z,1.90
2023-08-25T23:21:52.551Z,2.47
2023-08-25T23:24:39.431Z,2.43
2023-08-25T23:27:26.583Z,2.20
2023-08-25T23:30:13.563Z,3.30
2023-08-25T23:33:00.556Z,2.13
2023-08-25T23:35:51.963Z,1.83
2023-08-25T23:38:40.112Z,1.93
2023-08-25T23:41:27.072Z,2.30
2023-08-25T23:44:14.114Z,2.30
2023-08-25T23:47:01.017Z,2.50
2023-08-25T23:49:48.462Z,2.60
2023-08-25T23:52:35.524Z,3.27
2023-08-25T23:55:22.407Z,2.27
2023-08-25T23:58:09.410Z,2.07
